sensor_id;sensor_type;location;lat;lon;timestamp;temperature;humidity
64689;DHT22;62504;46.070;14.492;2023-03-04T00:01:32;5.50;99.90
64689;DHT22;62504;46.070;14.492;2023-03-04T00:03:58;5.60;99.90
64689;DHT22;62504;46.070;14.492;2023-03-04T00:06:24;5.60;99.90
64689;DHT22;62504;46.070;14.492;2023-03-04T00:08:50;5.70;99.90
64689;DHT22;62504;46.070;14.492;2023-03-04T00:11:15;5.60;99.90
64689;DHT22;62504;46.070;14.492;2023-03-04T00:13:41;5.50;99.90
64689;DHT22;62504;46.070;14.492;2023-03-04T00:16:07;5.40;99.90
64689;DHT22;62504;46.070;14.492;2023-03-04T00:18:32;5.40;99.90
64689;DHT22;62504;46.070;14.492;2023-03-04T00:20:58;5.30;99.90
64689;DHT22;62504;46.070;14.492;2023-03-04T00:23:24;5.40;99.90
64689;DHT22;62504;46.070;14.492;2023-03-04T00:25:49;5.30;99.90
64689;DHT22;62504;46.070;14.492;2023-03-04T00:28:15;5.30;99.90
64689;DHT22;62504;46.070;14.492;2023-03-04T00:30:41;5.20;99.90
64689;DHT22;62504;46.070;14.492;2023-03-04T00:33:06;5.50;99.90
64689;DHT22;62504;46.070;14.492;2023-03-04T00:35:32;5.30;99.90
64689;DHT22;62504;46.070;14.492;2023-03-04T00:37:58;5.40;99.90
64689;DHT22;62504;46.070;14.492;2023-03-04T00:40:23;5.50;99.90
64689;DHT22;62504;46.070;14.492;2023-03-04T00:42:49;5.50;99.90
64689;DHT22;62504;46.070;14.492;2023-03-04T00:45:15;5.30;99.90
64689;DHT22;62504;46.070;14.492;2023-03-04T00:47:40;5.40;99.90
64689;DHT22;62504;46.070;14.492;2023-03-04T00:50:06;5.50;99.90
64689;DHT22;62504;46.070;14.492;2023-03-04T00:52:32;5.50;99.90
64689;DHT22;62504;46.070;14.492;2023-03-04T00:54:58;5.50;99.90
64689;DHT22;62504;46.070;14.492;2023-03-04T00:57:23;5.50;99.90
64689;DHT22;62504;46.070;14.492;2023-03-04T00:59:49;5.60;99.90
64689;DHT22;62504;46.070;14.492;2023-03-04T01:02:15;5.50;99.90
64689;DHT22;62504;46.070;14.492;2023-03-04T01:04:41;5.50;99.90
64689;DHT22;62504;46.070;14.492;2023-03-04T01:07:07;5.60;99.90
64689;DHT22;62504;46.070;14.492;2023-03-04T01:09:33;5.50;99.90
64689;DHT22;62504;46.070;14.492;2023-03-04T01:11:59;5.50;99.90
64689;DHT22;62504;46.070;14.492;2023-03-04T01:14:24;5.50;99.90
64689;DHT22;62504;46.070;14.492;2023-03-04T01:16:50;5.50;99.90
64689;DHT22;62504;46.070;14.492;2023-03-04T01:19:16;5.40;99.90
64689;DHT22;62504;46.070;14.492;2023-03-04T01:21:42;5.50;99.90
64689;DHT22;62504;46.070;14.492;2023-03-04T01:24:08;5.40;99.90
64689;DHT22;62504;46.070;14.492;2023-03-04T01:26:34;5.50;99.90
64689;DHT22;62504;46.070;14.492;2023-03-04T01:28:59;5.50;99.90
64689;DHT22;62504;46.070;14.492;2023-03-04T01:31:25;5.50;99.90
64689;DHT22;62504;46.070;14.492;2023-03-04T01:33:51;5.50;99.90
64689;DHT22;62504;46.070;14.492;2023-03-04T01:36:16;5.70;99.90
64689;DHT22;62504;46.070;14.492;2023-03-04T01:38:42;5.50;99.90
64689;DHT22;62504;46.070;14.492;2023-03-04T01:41:09;5.50;99.90
64689;DHT22;62504;46.070;14.492;2023-03-04T01:43:36;5.40;99.90
64689;DHT22;62504;46.070;14.492;2023-03-04T01:46:02;5.50;99.90
64689;DHT22;62504;46.070;14.492;2023-03-04T01:48:38;5.50;99.90
64689;DHT22;62504;46.070;14.492;2023-03-04T01:51:05;5.50;99.90
64689;DHT22;62504;46.070;14.492;2023-03-04T01:53:32;5.40;99.90
64689;DHT22;62504;46.070;14.492;2023-03-04T01:56:22;5.50;99.90
64689;DHT22;62504;46.070;14.492;2023-03-04T02:01:54;5.50;99.90
64689;DHT22;62504;46.070;14.492;2023-03-04T02:04:23;5.30;99.90
64689;DHT22;62504;46.070;14.492;2023-03-04T02:06:49;5.30;99.90
64689;DHT22;62504;46.070;14.492;2023-03-04T02:09:16;5.20;99.90
64689;DHT22;62504;46.070;14.492;2023-03-04T02:11:43;5.10;99.90
64689;DHT22;62504;46.070;14.492;2023-03-04T02:14:11;5.10;99.90
64689;DHT22;62504;46.070;14.492;2023-03-04T02:16:38;5.20;99.90
64689;DHT22;62504;46.070;14.492;2023-03-04T02:19:08;4.80;99.90
64689;DHT22;62504;46.070;14.492;2023-03-04T02:21:37;4.80;99.90
64689;DHT22;62504;46.070;14.492;2023-03-04T02:26:39;4.90;99.90
64689;DHT22;62504;46.070;14.492;2023-03-04T02:29:09;4.80;99.90
64689;DHT22;62504;46.070;14.492;2023-03-04T02:31:48;4.90;99.90
64689;DHT22;62504;46.070;14.492;2023-03-04T02:34:20;5.00;99.90
64689;DHT22;62504;46.070;14.492;2023-03-04T02:36:47;5.00;99.90
64689;DHT22;62504;46.070;14.492;2023-03-04T02:41:50;5.00;99.90
64689;DHT22;62504;46.070;14.492;2023-03-04T02:44:18;4.80;99.90
64689;DHT22;62504;46.070;14.492;2023-03-04T02:46:44;4.80;99.90
64689;DHT22;62504;46.070;14.492;2023-03-04T02:49:10;4.70;99.90
64689;DHT22;62504;46.070;14.492;2023-03-04T02:51:36;4.70;99.90
64689;DHT22;62504;46.070;14.492;2023-03-04T02:54:02;4.80;99.90
64689;DHT22;62504;46.070;14.492;2023-03-04T02:56:28;4.70;99.90
64689;DHT22;62504;46.070;14.492;2023-03-04T02:58:53;4.80;99.90
64689;DHT22;62504;46.070;14.492;2023-03-04T03:01:19;4.60;99.90
64689;DHT22;62504;46.070;14.492;2023-03-04T03:03:45;4.60;99.90
64689;DHT22;62504;46.070;14.492;2023-03-04T03:06:10;4.70;99.90
64689;DHT22;62504;46.070;14.492;2023-03-04T03:08:36;4.80;99.90
64689;DHT22;62504;46.070;14.492;2023-03-04T03:11:02;5.00;99.90
64689;DHT22;62504;46.070;14.492;2023-03-04T03:13:27;4.80;99.90
64689;DHT22;62504;46.070;14.492;2023-03-04T03:15:53;4.70;99.90
64689;DHT22;62504;46.070;14.492;2023-03-04T03:18:19;4.90;99.90
64689;DHT22;62504;46.070;14.492;2023-03-04T03:20:45;4.80;99.90
64689;DHT22;62504;46.070;14.492;2023-03-04T03:23:11;4.90;99.90
64689;DHT22;62504;46.070;14.492;2023-03-04T03:25:37;5.00;99.90
64689;DHT22;62504;46.070;14.492;2023-03-04T03:28:02;5.00;99.90
64689;DHT22;62504;46.070;14.492;2023-03-04T03:30:28;5.00;99.90
64689;DHT22;62504;46.070;14.492;2023-03-04T03:32:54;5.00;99.90
64689;DHT22;62504;46.070;14.492;2023-03-04T03:35:20;5.00;99.90
64689;DHT22;62504;46.070;14.492;2023-03-04T03:37:45;5.00;99.90
64689;DHT22;62504;46.070;14.492;2023-03-04T03:40:13;5.10;99.90
64689;DHT22;62504;46.070;14.492;2023-03-04T03:42:39;5.00;99.90
64689;DHT22;62504;46.070;14.492;2023-03-04T03:45:05;5.00;99.90
64689;DHT22;62504;46.070;14.492;2023-03-04T03:47:31;5.00;99.90
64689;DHT22;62504;46.070;14.492;2023-03-04T03:49:57;4.90;99.90
64689;DHT22;62504;46.070;14.492;2023-03-04T03:52:22;4.90;99.90
64689;DHT22;62504;46.070;14.492;2023-03-04T03:54:48;4.90;99.90
64689;DHT22;62504;46.070;14.492;2023-03-04T03:57:14;5.10;99.90
64689;DHT22;62504;46.070;14.492;2023-03-04T03:59:39;5.10;99.90
64689;DHT22;62504;46.070;14.492;2023-03-04T04:02:05;5.10;99.90
64689;DHT22;62504;46.070;14.492;2023-03-04T04:04:31;5.00;99.90
64689;DHT22;62504;46.070;14.492;2023-03-04T04:06:57;5.00;99.90
64689;DHT22;62504;46.070;14.492;2023-03-04T04:09:22;5.00;99.90
64689;DHT22;62504;46.070;14.492;2023-03-04T04:11:48;5.10;99.90
64689;DHT22;62504;46.070;14.492;2023-03-04T04:14:14;5.20;99.90
64689;DHT22;62504;46.070;14.492;2023-03-04T04:16:40;5.10;99.90
64689;DHT22;62504;46.070;14.492;2023-03-04T04:19:06;5.00;99.90
64689;DHT22;62504;46.070;14.492;2023-03-04T04:21:32;5.00;99.90
64689;DHT22;62504;46.070;14.492;2023-03-04T04:23:57;5.00;99.90
64689;DHT22;62504;46.070;14.492;2023-03-04T04:26:23;5.10;99.90
64689;DHT22;62504;46.070;14.492;2023-03-04T04:28:48;5.00;99.90
64689;DHT22;62504;46.070;14.492;2023-03-04T04:31:14;5.10;99.90
64689;DHT22;62504;46.070;14.492;2023-03-04T04:33:40;5.10;99.90
64689;DHT22;62504;46.070;14.492;2023-03-04T04:36:06;5.10;99.90
64689;DHT22;62504;46.070;14.492;2023-03-04T04:38:31;5.10;99.90
64689;DHT22;62504;46.070;14.492;2023-03-04T04:40:58;5.00;99.90
64689;DHT22;62504;46.070;14.492;2023-03-04T04:43:24;5.00;99.90
64689;DHT22;62504;46.070;14.492;2023-03-04T04:45:51;5.10;99.90
64689;DHT22;62504;46.070;14.492;2023-03-04T04:48:16;5.20;99.90
64689;DHT22;62504;46.070;14.492;2023-03-04T04:50:42;5.20;99.90
64689;DHT22;62504;46.070;14.492;2023-03-04T04:53:11;5.10;99.90
64689;DHT22;62504;46.070;14.492;2023-03-04T04:55:36;5.10;99.90
64689;DHT22;62504;46.070;14.492;2023-03-04T04:58:05;5.10;99.90
64689;DHT22;62504;46.070;14.492;2023-03-04T05:00:31;5.20;99.90
64689;DHT22;62504;46.070;14.492;2023-03-04T05:02:56;5.20;99.90
64689;DHT22;62504;46.070;14.492;2023-03-04T05:05:22;5.20;99.90
64689;DHT22;62504;46.070;14.492;2023-03-04T05:07:48;5.30;99.90
64689;DHT22;62504;46.070;14.492;2023-03-04T05:10:15;5.30;99.90
64689;DHT22;62504;46.070;14.492;2023-03-04T05:12:43;5.30;99.90
64689;DHT22;62504;46.070;14.492;2023-03-04T05:15:09;5.30;99.90
64689;DHT22;62504;46.070;14.492;2023-03-04T05:17:35;5.30;99.90
64689;DHT22;62504;46.070;14.492;2023-03-04T05:20:00;5.20;99.90
64689;DHT22;62504;46.070;14.492;2023-03-04T05:22:26;5.20;99.90
64689;DHT22;62504;46.070;14.492;2023-03-04T05:24:52;5.30;99.90
64689;DHT22;62504;46.070;14.492;2023-03-04T05:27:17;5.30;99.90
64689;DHT22;62504;46.070;14.492;2023-03-04T05:29:43;5.30;99.90
64689;DHT22;62504;46.070;14.492;2023-03-04T05:32:11;5.30;99.90
64689;DHT22;62504;46.070;14.492;2023-03-04T05:34:36;5.10;99.90
64689;DHT22;62504;46.070;14.492;2023-03-04T05:37:02;4.80;99.90
64689;DHT22;62504;46.070;14.492;2023-03-04T05:39:28;4.70;99.90
64689;DHT22;62504;46.070;14.492;2023-03-04T05:41:53;4.90;99.90
64689;DHT22;62504;46.070;14.492;2023-03-04T05:44:19;5.20;99.90
64689;DHT22;62504;46.070;14.492;2023-03-04T05:46:45;5.00;99.90
64689;DHT22;62504;46.070;14.492;2023-03-04T05:49:10;5.10;99.90
64689;DHT22;62504;46.070;14.492;2023-03-04T05:51:36;5.10;99.90
64689;DHT22;62504;46.070;14.492;2023-03-04T05:54:02;5.20;99.90
64689;DHT22;62504;46.070;14.492;2023-03-04T05:56:27;5.20;99.90
64689;DHT22;62504;46.070;14.492;2023-03-04T05:58:56;5.20;99.90
64689;DHT22;62504;46.070;14.492;2023-03-04T06:01:23;5.30;99.90
64689;DHT22;62504;46.070;14.492;2023-03-04T06:03:49;5.30;99.90
64689;DHT22;62504;46.070;14.492;2023-03-04T06:06:15;5.20;99.90
64689;DHT22;62504;46.070;14.492;2023-03-04T06:08:40;5.10;99.90
64689;DHT22;62504;46.070;14.492;2023-03-04T06:11:06;5.20;99.90
64689;DHT22;62504;46.070;14.492;2023-03-04T06:13:32;5.20;99.90
64689;DHT22;62504;46.070;14.492;2023-03-04T06:15:59;5.30;99.90
64689;DHT22;62504;46.070;14.492;2023-03-04T06:18:26;5.40;99.90
64689;DHT22;62504;46.070;14.492;2023-03-04T06:20:57;5.30;99.90
64689;DHT22;62504;46.070;14.492;2023-03-04T06:23:23;5.20;99.90
64689;DHT22;62504;46.070;14.492;2023-03-04T06:25:56;5.20;99.90
64689;DHT22;62504;46.070;14.492;2023-03-04T06:28:23;5.30;99.90
64689;DHT22;62504;46.070;14.492;2023-03-04T06:30:51;5.30;99.90
64689;DHT22;62504;46.070;14.492;2023-03-04T06:33:17;5.30;99.90
64689;DHT22;62504;46.070;14.492;2023-03-04T06:35:43;5.30;99.90
64689;DHT22;62504;46.070;14.492;2023-03-04T06:38:09;5.40;99.90
64689;DHT22;62504;46.070;14.492;2023-03-04T06:40:35;5.30;99.90
64689;DHT22;62504;46.070;14.492;2023-03-04T06:43:00;5.30;99.90
64689;DHT22;62504;46.070;14.492;2023-03-04T06:45:26;5.30;99.90
64689;DHT22;62504;46.070;14.492;2023-03-04T06:47:52;5.30;99.90
64689;DHT22;62504;46.070;14.492;2023-03-04T06:50:18;5.20;99.90
64689;DHT22;62504;46.070;14.492;2023-03-04T06:52:43;5.20;99.90
64689;DHT22;62504;46.070;14.492;2023-03-04T06:55:09;5.20;99.90
64689;DHT22;62504;46.070;14.492;2023-03-04T06:57:37;5.20;99.90
64689;DHT22;62504;46.070;14.492;2023-03-04T07:00:04;5.30;99.90
64689;DHT22;62504;46.070;14.492;2023-03-04T07:02:30;5.30;99.90
64689;DHT22;62504;46.070;14.492;2023-03-04T07:04:55;5.40;99.90
64689;DHT22;62504;46.070;14.492;2023-03-04T07:07:21;5.30;99.90
64689;DHT22;62504;46.070;14.492;2023-03-04T07:09:47;5.40;99.90
64689;DHT22;62504;46.070;14.492;2023-03-04T07:12:13;5.30;99.90
64689;DHT22;62504;46.070;14.492;2023-03-04T07:14:39;5.40;99.90
64689;DHT22;62504;46.070;14.492;2023-03-04T07:17:04;5.30;99.90
64689;DHT22;62504;46.070;14.492;2023-03-04T07:19:30;5.30;99.90
64689;DHT22;62504;46.070;14.492;2023-03-04T07:21:56;5.20;99.90
64689;DHT22;62504;46.070;14.492;2023-03-04T07:24:21;5.20;99.90
64689;DHT22;62504;46.070;14.492;2023-03-04T07:26:47;5.10;99.90
64689;DHT22;62504;46.070;14.492;2023-03-04T07:29:13;4.80;99.90
64689;DHT22;62504;46.070;14.492;2023-03-04T07:31:38;4.90;99.90
64689;DHT22;62504;46.070;14.492;2023-03-04T07:34:07;5.20;99.90
64689;DHT22;62504;46.070;14.492;2023-03-04T07:36:35;5.40;99.90
64689;DHT22;62504;46.070;14.492;2023-03-04T07:39:01;5.40;99.90
64689;DHT22;62504;46.070;14.492;2023-03-04T07:41:27;5.50;99.90
64689;DHT22;62504;46.070;14.492;2023-03-04T07:43:55;5.40;99.90
64689;DHT22;62504;46.070;14.492;2023-03-04T07:46:21;5.40;99.90
64689;DHT22;62504;46.070;14.492;2023-03-04T07:48:47;5.30;99.90
64689;DHT22;62504;46.070;14.492;2023-03-04T07:51:16;5.30;99.90
64689;DHT22;62504;46.070;14.492;2023-03-04T07:53:44;5.30;99.90
64689;DHT22;62504;46.070;14.492;2023-03-04T07:56:16;5.30;99.90
64689;DHT22;62504;46.070;14.492;2023-03-04T07:58:42;5.40;99.90
64689;DHT22;62504;46.070;14.492;2023-03-04T08:01:14;5.20;99.90
64689;DHT22;62504;46.070;14.492;2023-03-04T08:03:40;5.20;99.90
64689;DHT22;62504;46.070;14.492;2023-03-04T08:06:08;5.40;99.90
64689;DHT22;62504;46.070;14.492;2023-03-04T08:08:34;5.60;99.90
64689;DHT22;62504;46.070;14.492;2023-03-04T08:11:04;5.60;99.90
64689;DHT22;62504;46.070;14.492;2023-03-04T08:13:29;5.20;99.90
64689;DHT22;62504;46.070;14.492;2023-03-04T08:15:56;5.20;99.90
64689;DHT22;62504;46.070;14.492;2023-03-04T08:18:22;5.40;99.90
64689;DHT22;62504;46.070;14.492;2023-03-04T08:20:47;5.60;99.90
64689;DHT22;62504;46.070;14.492;2023-03-04T08:23:13;5.60;99.90
64689;DHT22;62504;46.070;14.492;2023-03-04T08:25:40;5.50;99.90
64689;DHT22;62504;46.070;14.492;2023-03-04T08:28:07;5.50;99.90
64689;DHT22;62504;46.070;14.492;2023-03-04T08:30:33;5.60;99.90
64689;DHT22;62504;46.070;14.492;2023-03-04T08:33:00;5.80;99.90
64689;DHT22;62504;46.070;14.492;2023-03-04T08:35:26;5.60;99.90
64689;DHT22;62504;46.070;14.492;2023-03-04T08:37:52;5.80;99.90
64689;DHT22;62504;46.070;14.492;2023-03-04T08:40:18;5.50;99.90
64689;DHT22;62504;46.070;14.492;2023-03-04T08:42:43;5.60;99.90
64689;DHT22;62504;46.070;14.492;2023-03-04T08:45:10;5.70;99.90
64689;DHT22;62504;46.070;14.492;2023-03-04T08:47:36;5.60;99.90
64689;DHT22;62504;46.070;14.492;2023-03-04T08:50:04;5.60;99.90
64689;DHT22;62504;46.070;14.492;2023-03-04T08:52:30;5.50;99.90
64689;DHT22;62504;46.070;14.492;2023-03-04T08:54:56;5.60;99.90
64689;DHT22;62504;46.070;14.492;2023-03-04T08:57:22;5.70;99.90
64689;DHT22;62504;46.070;14.492;2023-03-04T08:59:48;5.70;99.90
64689;DHT22;62504;46.070;14.492;2023-03-04T09:02:14;5.70;99.90
64689;DHT22;62504;46.070;14.492;2023-03-04T09:04:39;5.80;99.90
64689;DHT22;62504;46.070;14.492;2023-03-04T09:07:06;5.90;99.90
64689;DHT22;62504;46.070;14.492;2023-03-04T09:09:33;6.10;99.90
64689;DHT22;62504;46.070;14.492;2023-03-04T09:11:59;6.20;99.90
64689;DHT22;62504;46.070;14.492;2023-03-04T09:14:25;6.10;99.90
64689;DHT22;62504;46.070;14.492;2023-03-04T09:16:50;6.20;99.90
64689;DHT22;62504;46.070;14.492;2023-03-04T09:19:16;6.30;99.90
64689;DHT22;62504;46.070;14.492;2023-03-04T09:21:41;6.30;99.90
64689;DHT22;62504;46.070;14.492;2023-03-04T09:24:07;6.20;99.90
64689;DHT22;62504;46.070;14.492;2023-03-04T09:26:33;6.20;99.90
64689;DHT22;62504;46.070;14.492;2023-03-04T09:29:01;5.90;99.90
64689;DHT22;62504;46.070;14.492;2023-03-04T09:31:27;5.70;99.90
64689;DHT22;62504;46.070;14.492;2023-03-04T09:33:54;5.70;99.90
64689;DHT22;62504;46.070;14.492;2023-03-04T09:36:21;5.90;99.90
64689;DHT22;62504;46.070;14.492;2023-03-04T09:38:47;5.70;99.90
64689;DHT22;62504;46.070;14.492;2023-03-04T09:41:19;5.80;99.90
64689;DHT22;62504;46.070;14.492;2023-03-04T09:43:46;6.00;99.90
64689;DHT22;62504;46.070;14.492;2023-03-04T09:46:35;6.10;99.90
64689;DHT22;62504;46.070;14.492;2023-03-04T09:49:03;6.20;99.90
64689;DHT22;62504;46.070;14.492;2023-03-04T09:54:41;6.40;99.90
64689;DHT22;62504;46.070;14.492;2023-03-04T09:57:27;6.40;99.90
64689;DHT22;62504;46.070;14.492;2023-03-04T10:00:24;6.50;99.90
64689;DHT22;62504;46.070;14.492;2023-03-04T10:08:36;6.20;99.90
64689;DHT22;62504;46.070;14.492;2023-03-04T10:11:15;6.10;99.90
64689;DHT22;62504;46.070;14.492;2023-03-04T10:16:23;6.10;99.90
64689;DHT22;62504;46.070;14.492;2023-03-04T10:21:54;6.30;99.90
64689;DHT22;62504;46.070;14.492;2023-03-04T10:24:22;6.00;99.90
64689;DHT22;62504;46.070;14.492;2023-03-04T10:26:57;6.30;99.90
64689;DHT22;62504;46.070;14.492;2023-03-04T10:29:28;6.50;99.90
64689;DHT22;62504;46.070;14.492;2023-03-04T10:31:54;6.50;99.90
64689;DHT22;62504;46.070;14.492;2023-03-04T10:34:21;6.70;99.90
64689;DHT22;62504;46.070;14.492;2023-03-04T10:37:00;6.80;99.90
64689;DHT22;62504;46.070;14.492;2023-03-04T10:39:35;6.80;99.90
64689;DHT22;62504;46.070;14.492;2023-03-04T10:42:04;6.80;99.90
64689;DHT22;62504;46.070;14.492;2023-03-04T10:44:32;7.20;99.90
64689;DHT22;62504;46.070;14.492;2023-03-04T10:47:00;7.20;99.90
64689;DHT22;62504;46.070;14.492;2023-03-04T10:49:28;7.10;99.90
64689;DHT22;62504;46.070;14.492;2023-03-04T10:52:17;7.50;99.90
64689;DHT22;62504;46.070;14.492;2023-03-04T10:54:47;8.00;99.90
64689;DHT22;62504;46.070;14.492;2023-03-04T10:57:19;8.10;99.90
64689;DHT22;62504;46.070;14.492;2023-03-04T10:59:57;8.10;99.90
64689;DHT22;62504;46.070;14.492;2023-03-04T11:02:34;7.70;99.90
64689;DHT22;62504;46.070;14.492;2023-03-04T11:05:22;7.70;99.90
64689;DHT22;62504;46.070;14.492;2023-03-04T11:07:53;8.30;99.90
64689;DHT22;62504;46.070;14.492;2023-03-04T11:12:50;8.30;99.90
64689;DHT22;62504;46.070;14.492;2023-03-04T11:15:21;8.20;99.90
64689;DHT22;62504;46.070;14.492;2023-03-04T11:18:01;8.10;99.90
64689;DHT22;62504;46.070;14.492;2023-03-04T11:20:36;8.30;99.90
64689;DHT22;62504;46.070;14.492;2023-03-04T11:23:10;8.20;99.90
64689;DHT22;62504;46.070;14.492;2023-03-04T11:25:43;7.70;99.90
64689;DHT22;62504;46.070;14.492;2023-03-04T11:31:17;8.20;99.90
64689;DHT22;62504;46.070;14.492;2023-03-04T11:33:54;8.00;99.90
64689;DHT22;62504;46.070;14.492;2023-03-04T11:39:55;8.10;99.90
64689;DHT22;62504;46.070;14.492;2023-03-04T11:44:54;8.20;99.90
64689;DHT22;62504;46.070;14.492;2023-03-04T11:47:58;8.40;99.90
64689;DHT22;62504;46.070;14.492;2023-03-04T11:58:43;8.50;99.90
64689;DHT22;62504;46.070;14.492;2023-03-04T12:07:05;8.10;99.90
64689;DHT22;62504;46.070;14.492;2023-03-04T12:09:41;8.20;99.90
64689;DHT22;62504;46.070;14.492;2023-03-04T12:20:46;8.70;99.90
64689;DHT22;62504;46.070;14.492;2023-03-04T12:23:53;8.40;99.90
64689;DHT22;62504;46.070;14.492;2023-03-04T12:29:25;8.70;99.90
64689;DHT22;62504;46.070;14.492;2023-03-04T12:34:45;8.50;99.90
64689;DHT22;62504;46.070;14.492;2023-03-04T12:40:29;8.80;99.90
64689;DHT22;62504;46.070;14.492;2023-03-04T12:48:40;8.70;99.90
64689;DHT22;62504;46.070;14.492;2023-03-04T12:59:18;9.00;99.90
64689;DHT22;62504;46.070;14.492;2023-03-04T13:10:10;9.10;99.90
64689;DHT22;62504;46.070;14.492;2023-03-04T13:12:56;9.20;99.90
64689;DHT22;62504;46.070;14.492;2023-03-04T13:20:44;9.40;99.90
64689;DHT22;62504;46.070;14.492;2023-03-04T13:25:49;9.60;99.90
64689;DHT22;62504;46.070;14.492;2023-03-04T13:28:35;9.70;99.90
64689;DHT22;62504;46.070;14.492;2023-03-04T13:31:12;9.70;99.90
64689;DHT22;62504;46.070;14.492;2023-03-04T13:33:44;9.60;99.90
64689;DHT22;62504;46.070;14.492;2023-03-04T13:36:34;9.50;99.90
64689;DHT22;62504;46.070;14.492;2023-03-04T13:41:49;9.60;99.90
64689;DHT22;62504;46.070;14.492;2023-03-04T13:47:20;9.70;99.90
64689;DHT22;62504;46.070;14.492;2023-03-04T13:49:47;9.80;99.90
64689;DHT22;62504;46.070;14.492;2023-03-04T13:52:51;10.00;99.90
64689;DHT22;62504;46.070;14.492;2023-03-04T13:55:33;10.00;99.90
64689;DHT22;62504;46.070;14.492;2023-03-04T13:58:01;10.10;99.90
64689;DHT22;62504;46.070;14.492;2023-03-04T14:00:47;10.20;99.90
64689;DHT22;62504;46.070;14.492;2023-03-04T14:08:18;10.20;99.90
64689;DHT22;62504;46.070;14.492;2023-03-04T14:10:44;10.40;99.90
64689;DHT22;62504;46.070;14.492;2023-03-04T14:13:10;10.40;99.90
64689;DHT22;62504;46.070;14.492;2023-03-04T14:15:36;10.30;99.90
64689;DHT22;62504;46.070;14.492;2023-03-04T14:18:03;10.20;99.90
64689;DHT22;62504;46.070;14.492;2023-03-04T14:20:38;10.30;99.90
64689;DHT22;62504;46.070;14.492;2023-03-04T14:25:48;10.30;99.90
64689;DHT22;62504;46.070;14.492;2023-03-04T14:28:16;10.30;99.90
64689;DHT22;62504;46.070;14.492;2023-03-04T14:30:43;10.30;99.90
64689;DHT22;62504;46.070;14.492;2023-03-04T14:33:20;10.20;99.90
64689;DHT22;62504;46.070;14.492;2023-03-04T14:35:48;10.20;99.90
64689;DHT22;62504;46.070;14.492;2023-03-04T14:41:03;10.20;99.90
64689;DHT22;62504;46.070;14.492;2023-03-04T14:44:16;10.30;99.90
64689;DHT22;62504;46.070;14.492;2023-03-04T14:46:21;10.20;99.90
64689;DHT22;62504;46.070;14.492;2023-03-04T14:48:51;10.30;99.90
64689;DHT22;62504;46.070;14.492;2023-03-04T14:53:57;10.30;99.90
64689;DHT22;62504;46.070;14.492;2023-03-04T14:56:28;10.40;99.90
64689;DHT22;62504;46.070;14.492;2023-03-04T14:58:56;10.30;99.90
64689;DHT22;62504;46.070;14.492;2023-03-04T15:01:33;10.30;99.90
64689;DHT22;62504;46.070;14.492;2023-03-04T15:04:03;10.40;99.90
64689;DHT22;62504;46.070;14.492;2023-03-04T15:06:35;10.30;99.90
64689;DHT22;62504;46.070;14.492;2023-03-04T15:09:15;10.40;99.90
64689;DHT22;62504;46.070;14.492;2023-03-04T15:14:41;10.30;99.90
64689;DHT22;62504;46.070;14.492;2023-03-04T15:22:43;10.30;99.90
64689;DHT22;62504;46.070;14.492;2023-03-04T15:25:20;10.20;99.90
64689;DHT22;62504;46.070;14.492;2023-03-04T15:27:48;10.30;99.90
64689;DHT22;62504;46.070;14.492;2023-03-04T15:30:23;10.30;99.90
64689;DHT22;62504;46.070;14.492;2023-03-04T15:32:53;10.30;99.90
64689;DHT22;62504;46.070;14.492;2023-03-04T15:35:19;10.30;99.90
64689;DHT22;62504;46.070;14.492;2023-03-04T15:37:46;10.30;99.90
64689;DHT22;62504;46.070;14.492;2023-03-04T15:40:28;10.30;99.90
64689;DHT22;62504;46.070;14.492;2023-03-04T15:42:56;10.30;99.90
64689;DHT22;62504;46.070;14.492;2023-03-04T15:45:28;10.40;99.90
64689;DHT22;62504;46.070;14.492;2023-03-04T15:47:55;10.40;99.90
64689;DHT22;62504;46.070;14.492;2023-03-04T15:50:21;10.40;99.90
64689;DHT22;62504;46.070;14.492;2023-03-04T15:52:51;10.50;99.90
64689;DHT22;62504;46.070;14.492;2023-03-04T15:55:20;10.40;99.90
64689;DHT22;62504;46.070;14.492;2023-03-04T15:57:48;10.60;99.90
64689;DHT22;62504;46.070;14.492;2023-03-04T16:00:17;10.60;99.90
64689;DHT22;62504;46.070;14.492;2023-03-04T16:02:43;10.50;99.90
64689;DHT22;62504;46.070;14.492;2023-03-04T16:05:12;10.50;99.90
64689;DHT22;62504;46.070;14.492;2023-03-04T16:07:40;10.50;99.90
64689;DHT22;62504;46.070;14.492;2023-03-04T16:12:45;10.40;99.90
64689;DHT22;62504;46.070;14.492;2023-03-04T16:15:16;10.30;99.90
64689;DHT22;62504;46.070;14.492;2023-03-04T16:17:43;10.40;99.90
64689;DHT22;62504;46.070;14.492;2023-03-04T16:20:14;10.40;99.90
64689;DHT22;62504;46.070;14.492;2023-03-04T16:22:41;10.30;99.90
64689;DHT22;62504;46.070;14.492;2023-03-04T16:25:13;10.30;99.90
64689;DHT22;62504;46.070;14.492;2023-03-04T16:27:39;10.30;99.90
64689;DHT22;62504;46.070;14.492;2023-03-04T16:30:07;10.20;99.90
64689;DHT22;62504;46.070;14.492;2023-03-04T16:32:33;10.20;99.90
64689;DHT22;62504;46.070;14.492;2023-03-04T16:34:59;10.30;99.90
64689;DHT22;62504;46.070;14.492;2023-03-04T16:37:24;10.10;99.90
64689;DHT22;62504;46.070;14.492;2023-03-04T16:39:50;10.10;99.90
64689;DHT22;62504;46.070;14.492;2023-03-04T16:42:17;10.10;99.90
64689;DHT22;62504;46.070;14.492;2023-03-04T16:44:44;10.10;99.90
64689;DHT22;62504;46.070;14.492;2023-03-04T16:47:10;10.00;99.90
64689;DHT22;62504;46.070;14.492;2023-03-04T16:49:36;9.90;99.90
64689;DHT22;62504;46.070;14.492;2023-03-04T16:52:02;9.80;99.90
64689;DHT22;62504;46.070;14.492;2023-03-04T16:54:31;9.70;99.90
64689;DHT22;62504;46.070;14.492;2023-03-04T16:56:57;9.70;99.90
64689;DHT22;62504;46.070;14.492;2023-03-04T16:59:24;9.50;99.90
64689;DHT22;62504;46.070;14.492;2023-03-04T17:01:52;9.40;99.90
64689;DHT22;62504;46.070;14.492;2023-03-04T17:04:18;9.30;99.90
64689;DHT22;62504;46.070;14.492;2023-03-04T17:06:43;9.30;99.90
64689;DHT22;62504;46.070;14.492;2023-03-04T17:09:09;9.30;99.90
64689;DHT22;62504;46.070;14.492;2023-03-04T17:11:35;9.30;99.90
64689;DHT22;62504;46.070;14.492;2023-03-04T17:14:01;9.40;99.90
64689;DHT22;62504;46.070;14.492;2023-03-04T17:16:27;9.40;99.90
64689;DHT22;62504;46.070;14.492;2023-03-04T17:18:53;9.30;99.90
64689;DHT22;62504;46.070;14.492;2023-03-04T17:21:22;9.20;99.90
64689;DHT22;62504;46.070;14.492;2023-03-04T17:23:48;9.10;99.90
64689;DHT22;62504;46.070;14.492;2023-03-04T17:26:14;9.10;99.90
64689;DHT22;62504;46.070;14.492;2023-03-04T17:28:41;9.00;99.90
64689;DHT22;62504;46.070;14.492;2023-03-04T17:31:08;8.90;99.90
64689;DHT22;62504;46.070;14.492;2023-03-04T17:33:34;8.80;99.90
64689;DHT22;62504;46.070;14.492;2023-03-04T17:36:00;8.80;99.90
64689;DHT22;62504;46.070;14.492;2023-03-04T17:38:25;8.70;99.90
64689;DHT22;62504;46.070;14.492;2023-03-04T17:40:51;8.70;99.90